sensor_id;sensor_type;location;lat;lon;timestamp;P1;durP1;ratioP1;P2;durP2;ratioP2
24521;SDS011;12680;57.804;12.190;2023-02-28T00:01:12;3.40;;;1.60;;
24521;SDS011;12680;57.804;12.190;2023-02-28T00:03:39;3.40;;;1.80;;
24521;SDS011;12680;57.804;12.190;2023-02-28T00:06:06;2.95;;;1.73;;
24521;SDS011;12680;57.804;12.190;2023-02-28T00:08:36;2.45;;;1.63;;
24521;SDS011;12680;57.804;12.190;2023-02-28T00:11:04;3.15;;;2.17;;
24521;SDS011;12680;57.804;12.190;2023-02-28T00:13:33;3.08;;;1.80;;
24521;SDS011;12680;57.804;12.190;2023-02-28T00:16:03;2.20;;;1.60;;
24521;SDS011;12680;57.804;12.190;2023-02-28T00:18:32;4.25;;;1.63;;
24521;SDS011;12680;57.804;12.190;2023-02-28T00:20:59;3.08;;;1.45;;
24521;SDS011;12680;57.804;12.190;2023-02-28T00:23:26;2.67;;;1.70;;
24521;SDS011;12680;57.804;12.190;2023-02-28T00:25:53;2.03;;;1.55;;
24521;SDS011;12680;57.804;12.190;2023-02-28T00:28:20;2.05;;;1.58;;
24521;SDS011;12680;57.804;12.190;2023-02-28T00:30:47;2.90;;;1.30;;
24521;SDS011;12680;57.804;12.190;2023-02-28T00:37:06;5.90;;;1.58;;
24521;SDS011;12680;57.804;12.190;2023-02-28T00:39:35;2.33;;;1.30;;
24521;SDS011;12680;57.804;12.190;2023-02-28T00:42:06;2.47;;;1.50;;
24521;SDS011;12680;57.804;12.190;2023-02-28T00:44:33;2.03;;;1.45;;
24521;SDS011;12680;57.804;12.190;2023-02-28T00:47:00;1.92;;;1.30;;
24521;SDS011;12680;57.804;12.190;2023-02-28T00:49:27;1.92;;;1.30;;
24521;SDS011;12680;57.804;12.190;2023-02-28T00:51:54;3.10;;;1.50;;
24521;SDS011;12680;57.804;12.190;2023-02-28T00:54:22;3.53;;;1.88;;
24521;SDS011;12680;57.804;12.190;2023-02-28T00:56:49;2.67;;;1.73;;
24521;SDS011;12680;57.804;12.190;2023-02-28T00:59:17;3.80;;;1.45;;
24521;SDS011;12680;57.804;12.190;2023-02-28T01:01:44;8.68;;;1.40;;
24521;SDS011;12680;57.804;12.190;2023-02-28T01:04:12;2.50;;;1.55;;
24521;SDS011;12680;57.804;12.190;2023-02-28T01:06:40;2.50;;;1.60;;
24521;SDS011;12680;57.804;12.190;2023-02-28T01:09:07;1.77;;;1.20;;
24521;SDS011;12680;57.804;12.190;2023-02-28T01:11:34;1.48;;;1.20;;
24521;SDS011;12680;57.804;12.190;2023-02-28T01:14:02;2.03;;;1.30;;
24521;SDS011;12680;57.804;12.190;2023-02-28T01:16:30;2.10;;;1.38;;
24521;SDS011;12680;57.804;12.190;2023-02-28T01:18:57;1.85;;;1.30;;
24521;SDS011;12680;57.804;12.190;2023-02-28T01:21:23;2.25;;;1.10;;
24521;SDS011;12680;57.804;12.190;2023-02-28T01:23:50;3.00;;;1.27;;
24521;SDS011;12680;57.804;12.190;2023-02-28T01:26:18;1.65;;;1.13;;
24521;SDS011;12680;57.804;12.190;2023-02-28T01:28:48;2.28;;;1.25;;
24521;SDS011;12680;57.804;12.190;2023-02-28T01:31:16;1.35;;;1.13;;
24521;SDS011;12680;57.804;12.190;2023-02-28T01:33:44;3.25;;;1.35;;
24521;SDS011;12680;57.804;12.190;2023-02-28T01:36:13;2.65;;;1.35;;
24521;SDS011;12680;57.804;12.190;2023-02-28T01:38:44;1.77;;;1.33;;
24521;SDS011;12680;57.804;12.190;2023-02-28T01:41:30;2.15;;;1.60;;
24521;SDS011;12680;57.804;12.190;2023-02-28T01:44:06;2.40;;;1.33;;
24521;SDS011;12680;57.804;12.190;2023-02-28T01:46:53;1.70;;;1.13;;
24521;SDS011;12680;57.804;12.190;2023-02-28T01:49:20;2.05;;;1.45;;
24521;SDS011;12680;57.804;12.190;2023-02-28T01:51:48;2.15;;;1.30;;
24521;SDS011;12680;57.804;12.190;2023-02-28T01:54:22;2.85;;;1.40;;
24521;SDS011;12680;57.804;12.190;2023-02-28T01:56:58;1.83;;;1.30;;
24521;SDS011;12680;57.804;12.190;2023-02-28T02:00:00;1.67;;;1.20;;
24521;SDS011;12680;57.804;12.190;2023-02-28T02:02:31;2.50;;;1.15;;
24521;SDS011;12680;57.804;12.190;2023-02-28T02:04:58;2.38;;;1.35;;
24521;SDS011;12680;57.804;12.190;2023-02-28T02:07:31;1.48;;;1.30;;
24521;SDS011;12680;57.804;12.190;2023-02-28T02:10:11;2.38;;;1.50;;
24521;SDS011;12680;57.804;12.190;2023-02-28T02:18:22;2.13;;;1.20;;
24521;SDS011;12680;57.804;12.190;2023-02-28T02:23:58;2.05;;;1.42;;
24521;SDS011;12680;57.804;12.190;2023-02-28T02:27:06;2.38;;;1.27;;
24521;SDS011;12680;57.804;12.190;2023-02-28T02:32:55;2.58;;;1.77;;
24521;SDS011;12680;57.804;12.190;2023-02-28T02:35:35;4.28;;;1.17;;
24521;SDS011;12680;57.804;12.190;2023-02-28T02:41:07;2.72;;;1.58;;
24521;SDS011;12680;57.804;12.190;2023-02-28T02:43:51;2.97;;;1.38;;
24521;SDS011;12680;57.804;12.190;2023-02-28T02:46:21;2.65;;;1.20;;
24521;SDS011;12680;57.804;12.190;2023-02-28T02:48:54;2.47;;;1.23;;
24521;SDS011;12680;57.804;12.190;2023-02-28T02:51:24;4.00;;;1.33;;
24521;SDS011;12680;57.804;12.190;2023-02-28T02:53:54;1.60;;;0.82;;
24521;SDS011;12680;57.804;12.190;2023-02-28T02:56:43;1.83;;;1.30;;
24521;SDS011;12680;57.804;12.190;2023-02-28T02:59:13;1.05;;;0.80;;
24521;SDS011;12680;57.804;12.190;2023-02-28T03:01:55;2.20;;;1.30;;
24521;SDS011;12680;57.804;12.190;2023-02-28T03:04:24;2.38;;;1.30;;
24521;SDS011;12680;57.804;12.190;2023-02-28T03:06:53;4.13;;;1.33;;
24521;SDS011;12680;57.804;12.190;2023-02-28T03:09:21;2.88;;;1.60;;
24521;SDS011;12680;57.804;12.190;2023-02-28T03:11:49;4.05;;;1.40;;
24521;SDS011;12680;57.804;12.190;2023-02-28T03:20:23;2.33;;;1.33;;
24521;SDS011;12680;57.804;12.190;2023-02-28T03:23:03;2.38;;;1.27;;
24521;SDS011;12680;57.804;12.190;2023-02-28T03:25:50;5.05;;;1.50;;
24521;SDS011;12680;57.804;12.190;2023-02-28T03:28:28;1.73;;;1.38;;
24521;SDS011;12680;57.804;12.190;2023-02-28T03:31:48;3.70;;;1.92;;
24521;SDS011;12680;57.804;12.190;2023-02-28T03:36:38;1.20;;;1.08;;
24521;SDS011;12680;57.804;12.190;2023-02-28T03:39:19;8.18;;;1.63;;
24521;SDS011;12680;57.804;12.190;2023-02-28T03:41:54;3.70;;;1.65;;
24521;SDS011;12680;57.804;12.190;2023-02-28T03:44:28;2.15;;;1.40;;
24521;SDS011;12680;57.804;12.190;2023-02-28T03:47:01;2.10;;;1.50;;
24521;SDS011;12680;57.804;12.190;2023-02-28T03:49:40;3.00;;;1.52;;
24521;SDS011;12680;57.804;12.190;2023-02-28T03:52:15;4.40;;;1.30;;
24521;SDS011;12680;57.804;12.190;2023-02-28T03:54:47;1.77;;;1.30;;
24521;SDS011;12680;57.804;12.190;2023-02-28T03:57:22;3.92;;;1.70;;
24521;SDS011;12680;57.804;12.190;2023-02-28T04:00:43;3.53;;;1.70;;
24521;SDS011;12680;57.804;12.190;2023-02-28T04:02:56;2.50;;;1.30;;
24521;SDS011;12680;57.804;12.190;2023-02-28T04:05:23;2.30;;;1.60;;
24521;SDS011;12680;57.804;12.190;2023-02-28T04:07:50;3.92;;;1.60;;
24521;SDS011;12680;57.804;12.190;2023-02-28T04:10:18;4.10;;;1.90;;
24521;SDS011;12680;57.804;12.190;2023-02-28T04:12:44;2.30;;;1.42;;
24521;SDS011;12680;57.804;12.190;2023-02-28T04:15:11;5.10;;;1.40;;
24521;SDS011;12680;57.804;12.190;2023-02-28T04:17:38;2.05;;;1.52;;
24521;SDS011;12680;57.804;12.190;2023-02-28T04:20:05;3.38;;;1.40;;
24521;SDS011;12680;57.804;12.190;2023-02-28T04:22:36;2.08;;;1.55;;
24521;SDS011;12680;57.804;12.190;2023-02-28T04:25:03;3.83;;;1.42;;
24521;SDS011;12680;57.804;12.190;2023-02-28T04:27:32;3.90;;;2.15;;
24521;SDS011;12680;57.804;12.190;2023-02-28T04:29:58;1.90;;;1.40;;
24521;SDS011;12680;57.804;12.190;2023-02-28T04:32:25;2.03;;;1.50;;
24521;SDS011;12680;57.804;12.190;2023-02-28T04:34:52;3.80;;;2.03;;
24521;SDS011;12680;57.804;12.190;2023-02-28T04:37:19;2.83;;;1.63;;
24521;SDS011;12680;57.804;12.190;2023-02-28T04:39:46;4.47;;;1.95;;
24521;SDS011;12680;57.804;12.190;2023-02-28T04:42:12;2.38;;;1.50;;
24521;SDS011;12680;57.804;12.190;2023-02-28T04:44:40;4.15;;;2.03;;
24521;SDS011;12680;57.804;12.190;2023-02-28T04:47:06;3.67;;;1.88;;
24521;SDS011;12680;57.804;12.190;2023-02-28T04:49:33;3.38;;;2.03;;
24521;SDS011;12680;57.804;12.190;2023-02-28T04:52:00;4.63;;;2.38;;
24521;SDS011;12680;57.804;12.190;2023-02-28T04:54:26;3.20;;;2.25;;
24521;SDS011;12680;57.804;12.190;2023-02-28T04:56:54;3.25;;;2.17;;
24521;SDS011;12680;57.804;12.190;2023-02-28T04:59:21;4.38;;;2.83;;
24521;SDS011;12680;57.804;12.190;2023-02-28T05:01:48;22.83;;;13.05;;
24521;SDS011;12680;57.804;12.190;2023-02-28T05:04:15;15.05;;;9.20;;
24521;SDS011;12680;57.804;12.190;2023-02-28T05:06:42;10.80;;;6.88;;
24521;SDS011;12680;57.804;12.190;2023-02-28T05:09:09;11.80;;;6.50;;
24521;SDS011;12680;57.804;12.190;2023-02-28T05:11:39;7.80;;;4.47;;
24521;SDS011;12680;57.804;12.190;2023-02-28T05:14:08;7.70;;;5.32;;
24521;SDS011;12680;57.804;12.190;2023-02-28T05:16:37;9.00;;;5.45;;
24521;SDS011;12680;57.804;12.190;2023-02-28T05:19:04;6.97;;;4.65;;
24521;SDS011;12680;57.804;12.190;2023-02-28T05:21:32;5.32;;;4.20;;
24521;SDS011;12680;57.804;12.190;2023-02-28T05:24:01;6.05;;;4.07;;
24521;SDS011;12680;57.804;12.190;2023-02-28T05:26:30;7.22;;;4.63;;
24521;SDS011;12680;57.804;12.190;2023-02-28T05:29:00;6.75;;;4.15;;
24521;SDS011;12680;57.804;12.190;2023-02-28T05:31:26;5.28;;;3.67;;
24521;SDS011;12680;57.804;12.190;2023-02-28T05:33:54;7.35;;;3.60;;
24521;SDS011;12680;57.804;12.190;2023-02-28T05:36:20;5.05;;;2.70;;
24521;SDS011;12680;57.804;12.190;2023-02-28T05:38:48;3.83;;;2.70;;
24521;SDS011;12680;57.804;12.190;2023-02-28T05:41:16;3.05;;;2.60;;
24521;SDS011;12680;57.804;12.190;2023-02-28T05:43:45;2.55;;;2.15;;
24521;SDS011;12680;57.804;12.190;2023-02-28T05:46:13;2.75;;;2.10;;
24521;SDS011;12680;57.804;12.190;2023-02-28T05:48:40;3.08;;;1.90;;
24521;SDS011;12680;57.804;12.190;2023-02-28T05:51:08;2.42;;;1.70;;
24521;SDS011;12680;57.804;12.190;2023-02-28T05:53:35;1.63;;;1.52;;
24521;SDS011;12680;57.804;12.190;2023-02-28T05:56:03;2.33;;;1.30;;
24521;SDS011;12680;57.804;12.190;2023-02-28T05:58:30;3.13;;;2.05;;
24521;SDS011;12680;57.804;12.190;2023-02-28T06:01:00;1.88;;;1.60;;
24521;SDS011;12680;57.804;12.190;2023-02-28T06:03:45;2.40;;;1.63;;
24521;SDS011;12680;57.804;12.190;2023-02-28T06:06:12;4.57;;;1.92;;
24521;SDS011;12680;57.804;12.190;2023-02-28T06:08:39;3.45;;;1.70;;
24521;SDS011;12680;57.804;12.190;2023-02-28T06:11:05;3.38;;;1.92;;
24521;SDS011;12680;57.804;12.190;2023-02-28T06:13:33;4.50;;;1.83;;
24521;SDS011;12680;57.804;12.190;2023-02-28T06:16:02;2.92;;;1.70;;
24521;SDS011;12680;57.804;12.190;2023-02-28T06:18:29;3.03;;;1.90;;
24521;SDS011;12680;57.804;12.190;2023-02-28T06:20:56;2.28;;;1.60;;
24521;SDS011;12680;57.804;12.190;2023-02-28T06:23:23;1.63;;;1.50;;
24521;SDS011;12680;57.804;12.190;2023-02-28T06:25:49;2.13;;;1.60;;
24521;SDS011;12680;57.804;12.190;2023-02-28T06:28:16;3.60;;;1.60;;
24521;SDS011;12680;57.804;12.190;2023-02-28T06:30:43;4.72;;;1.85;;
24521;SDS011;12680;57.804;12.190;2023-02-28T06:33:11;5.72;;;1.88;;
24521;SDS011;12680;57.804;12.190;2023-02-28T06:35:38;4.07;;;1.48;;
24521;SDS011;12680;57.804;12.190;2023-02-28T06:38:05;2.75;;;2.00;;
24521;SDS011;12680;57.804;12.190;2023-02-28T06:40:32;2.53;;;1.85;;
24521;SDS011;12680;57.804;12.190;2023-02-28T06:43:01;1.98;;;1.50;;
24521;SDS011;12680;57.804;12.190;2023-02-28T06:45:28;2.55;;;1.70;;
24521;SDS011;12680;57.804;12.190;2023-02-28T06:47:55;1.85;;;1.33;;
24521;SDS011;12680;57.804;12.190;2023-02-28T06:50:21;1.92;;;1.58;;
24521;SDS011;12680;57.804;12.190;2023-02-28T06:52:48;2.28;;;1.35;;
24521;SDS011;12680;57.804;12.190;2023-02-28T06:55:19;1.95;;;1.30;;
24521;SDS011;12680;57.804;12.190;2023-02-28T06:57:46;2.10;;;1.60;;
24521;SDS011;12680;57.804;12.190;2023-02-28T07:00:13;2.85;;;1.35;;
24521;SDS011;12680;57.804;12.190;2023-02-28T07:02:40;3.08;;;1.38;;
24521;SDS011;12680;57.804;12.190;2023-02-28T07:05:07;2.20;;;1.30;;
24521;SDS011;12680;57.804;12.190;2023-02-28T07:07:34;2.42;;;1.52;;
24521;SDS011;12680;57.804;12.190;2023-02-28T07:10:04;2.90;;;1.60;;
24521;SDS011;12680;57.804;12.190;2023-02-28T07:12:31;1.65;;;1.40;;
24521;SDS011;12680;57.804;12.190;2023-02-28T07:14:58;1.75;;;1.33;;
24521;SDS011;12680;57.804;12.190;2023-02-28T07:17:25;2.42;;;1.52;;
24521;SDS011;12680;57.804;12.190;2023-02-28T07:19:51;3.15;;;1.45;;
24521;SDS011;12680;57.804;12.190;2023-02-28T07:22:18;4.15;;;1.30;;
24521;SDS011;12680;57.804;12.190;2023-02-28T07:24:45;2.58;;;1.60;;
24521;SDS011;12680;57.804;12.190;2023-02-28T07:27:11;4.40;;;1.50;;
24521;SDS011;12680;57.804;12.190;2023-02-28T07:29:38;5.13;;;1.20;;
24521;SDS011;12680;57.804;12.190;2023-02-28T07:32:05;3.50;;;1.23;;
24521;SDS011;12680;57.804;12.190;2023-02-28T07:34:32;1.23;;;1.13;;
24521;SDS011;12680;57.804;12.190;2023-02-28T07:36:58;1.13;;;1.02;;
24521;SDS011;12680;57.804;12.190;2023-02-28T07:39:25;2.80;;;1.15;;
24521;SDS011;12680;57.804;12.190;2023-02-28T07:41:52;3.10;;;1.10;;
24521;SDS011;12680;57.804;12.190;2023-02-28T07:44:19;2.90;;;1.48;;
24521;SDS011;12680;57.804;12.190;2023-02-28T07:46:47;1.30;;;1.20;;
24521;SDS011;12680;57.804;12.190;2023-02-28T07:49:13;1.77;;;1.40;;
24521;SDS011;12680;57.804;12.190;2023-02-28T07:51:40;2.17;;;1.45;;
24521;SDS011;12680;57.804;12.190;2023-02-28T07:54:07;3.25;;;1.80;;
24521;SDS011;12680;57.804;12.190;2023-02-28T07:56:34;2.67;;;1.83;;
24521;SDS011;12680;57.804;12.190;2023-02-28T07:59:01;3.78;;;2.33;;
24521;SDS011;12680;57.804;12.190;2023-02-28T08:01:27;4.15;;;2.35;;
24521;SDS011;12680;57.804;12.190;2023-02-28T08:03:55;3.17;;;1.88;;
24521;SDS011;12680;57.804;12.190;2023-02-28T08:06:23;3.28;;;2.00;;
24521;SDS011;12680;57.804;12.190;2023-02-28T08:08:52;1.60;;;1.33;;
24521;SDS011;12680;57.804;12.190;2023-02-28T08:11:19;2.25;;;1.45;;
24521;SDS011;12680;57.804;12.190;2023-02-28T08:13:46;1.33;;;1.23;;
24521;SDS011;12680;57.804;12.190;2023-02-28T08:16:13;2.10;;;1.40;;
24521;SDS011;12680;57.804;12.190;2023-02-28T08:18:49;3.70;;;1.80;;
24521;SDS011;12680;57.804;12.190;2023-02-28T08:21:17;4.35;;;1.85;;
24521;SDS011;12680;57.804;12.190;2023-02-28T08:23:46;1.90;;;1.63;;
24521;SDS011;12680;57.804;12.190;2023-02-28T08:26:17;1.65;;;1.45;;
24521;SDS011;12680;57.804;12.190;2023-02-28T08:28:45;1.40;;;1.30;;
24521;SDS011;12680;57.804;12.190;2023-02-28T08:31:13;1.30;;;1.20;;
24521;SDS011;12680;57.804;12.190;2023-02-28T08:33:41;2.45;;;1.77;;
24521;SDS011;12680;57.804;12.190;2023-02-28T08:36:08;3.22;;;1.88;;
24521;SDS011;12680;57.804;12.190;2023-02-28T08:38:35;3.30;;;2.10;;
24521;SDS011;12680;57.804;12.190;2023-02-28T08:41:04;3.30;;;2.30;;
24521;SDS011;12680;57.804;12.190;2023-02-28T08:43:35;4.32;;;2.30;;
24521;SDS011;12680;57.804;12.190;2023-02-28T08:46:02;3.95;;;2.33;;
24521;SDS011;12680;57.804;12.190;2023-02-28T08:48:30;2.67;;;1.90;;
24521;SDS011;12680;57.804;12.190;2023-02-28T08:51:02;3.28;;;2.17;;
24521;SDS011;12680;57.804;12.190;2023-02-28T08:53:34;3.53;;;2.42;;
24521;SDS011;12680;57.804;12.190;2023-02-28T08:58:34;6.25;;;3.15;;
24521;SDS011;12680;57.804;12.190;2023-02-28T09:01:07;4.50;;;2.58;;
24521;SDS011;12680;57.804;12.190;2023-02-28T09:03:35;4.85;;;2.20;;
24521;SDS011;12680;57.804;12.190;2023-02-28T09:06:02;3.90;;;2.70;;
24521;SDS011;12680;57.804;12.190;2023-02-28T09:08:29;5.50;;;3.28;;
24521;SDS011;12680;57.804;12.190;2023-02-28T09:10:57;4.25;;;3.20;;
24521;SDS011;12680;57.804;12.190;2023-02-28T09:13:26;4.90;;;3.38;;
24521;SDS011;12680;57.804;12.190;2023-02-28T09:15:54;3.78;;;2.65;;
24521;SDS011;12680;57.804;12.190;2023-02-28T09:18:23;3.20;;;2.70;;
24521;SDS011;12680;57.804;12.190;2023-02-28T09:20:50;4.35;;;2.95;;
24521;SDS011;12680;57.804;12.190;2023-02-28T09:23:17;4.07;;;2.90;;
24521;SDS011;12680;57.804;12.190;2023-02-28T09:25:45;3.35;;;2.65;;
24521;SDS011;12680;57.804;12.190;2023-02-28T09:28:13;4.97;;;2.95;;
24521;SDS011;12680;57.804;12.190;2023-02-28T09:30:49;5.18;;;3.13;;
24521;SDS011;12680;57.804;12.190;2023-02-28T09:33:18;4.38;;;3.10;;
24521;SDS011;12680;57.804;12.190;2023-02-28T09:35:49;6.15;;;3.30;;
24521;SDS011;12680;57.804;12.190;2023-02-28T09:38:17;4.90;;;3.30;;
24521;SDS011;12680;57.804;12.190;2023-02-28T09:40:48;5.75;;;3.38;;
24521;SDS011;12680;57.804;12.190;2023-02-28T09:43:19;4.60;;;3.30;;
24521;SDS011;12680;57.804;12.190;2023-02-28T09:45:50;4.78;;;2.70;;
24521;SDS011;12680;57.804;12.190;2023-02-28T09:48:26;3.13;;;2.20;;
24521;SDS011;12680;57.804;12.190;2023-02-28T09:51:05;3.10;;;2.63;;
24521;SDS011;12680;57.804;12.190;2023-02-28T09:53:39;5.38;;;2.88;;
24521;SDS011;12680;57.804;12.190;2023-02-28T09:56:10;3.88;;;2.80;;
24521;SDS011;12680;57.804;12.190;2023-02-28T10:06:53;3.95;;;2.72;;
24521;SDS011;12680;57.804;12.190;2023-02-28T10:09:26;6.65;;;3.30;;
24521;SDS011;12680;57.804;12.190;2023-02-28T10:12:00;6.10;;;2.85;;
24521;SDS011;12680;57.804;12.190;2023-02-28T10:14:31;3.50;;;2.28;;
24521;SDS011;12680;57.804;12.190;2023-02-28T10:17:04;3.30;;;2.40;;
24521;SDS011;12680;57.804;12.190;2023-02-28T10:19:44;3.03;;;1.60;;
24521;SDS011;12680;57.804;12.190;2023-02-28T10:24:47;3.03;;;1.80;;
24521;SDS011;12680;57.804;12.190;2023-02-28T10:27:16;3.95;;;1.30;;
24521;SDS011;12680;57.804;12.190;2023-02-28T10:29:51;1.67;;;1.35;;
24521;SDS011;12680;57.804;12.190;2023-02-28T10:32:33;1.52;;;0.90;;
24521;SDS011;12680;57.804;12.190;2023-02-28T10:37:43;2.80;;;0.85;;
24521;SDS011;12680;57.804;12.190;2023-02-28T10:42:55;2.72;;;1.23;;
24521;SDS011;12680;57.804;12.190;2023-02-28T10:45:22;3.45;;;1.10;;
24521;SDS011;12680;57.804;12.190;2023-02-28T10:47:52;2.25;;;1.05;;
24521;SDS011;12680;57.804;12.190;2023-02-28T11:01:40;0.85;;;0.65;;
24521;SDS011;12680;57.804;12.190;2023-02-28T11:06:59;1.35;;;0.70;;
24521;SDS011;12680;57.804;12.190;2023-02-28T11:09:28;0.90;;;0.80;;
24521;SDS011;12680;57.804;12.190;2023-02-28T11:11:58;0.55;;;0.52;;
24521;SDS011;12680;57.804;12.190;2023-02-28T11:14:27;1.70;;;0.65;;
24521;SDS011;12680;57.804;12.190;2023-02-28T11:16:57;4.38;;;0.80;;
24521;SDS011;12680;57.804;12.190;2023-02-28T11:19:32;0.50;;;0.50;;
24521;SDS011;12680;57.804;12.190;2023-02-28T11:22:05;1.50;;;0.35;;
24521;SDS011;12680;57.804;12.190;2023-02-28T11:24:43;0.50;;;0.47;;
24521;SDS011;12680;57.804;12.190;2023-02-28T11:33:23;0.60;;;0.30;;
24521;SDS011;12680;57.804;12.190;2023-02-28T11:36:01;0.32;;;0.32;;
24521;SDS011;12680;57.804;12.190;2023-02-28T11:38:34;0.47;;;0.40;;
24521;SDS011;12680;57.804;12.190;2023-02-28T11:44:14;0.30;;;0.30;;
24521;SDS011;12680;57.804;12.190;2023-02-28T11:46:50;0.40;;;0.28;;
24521;SDS011;12680;57.804;12.190;2023-02-28T11:57:50;0.52;;;0.40;;
24521;SDS011;12680;57.804;12.190;2023-02-28T12:03:27;0.50;;;0.50;;
24521;SDS011;12680;57.804;12.190;2023-02-28T12:06:31;0.70;;;0.40;;
24521;SDS011;12680;57.804;12.190;2023-02-28T12:11:55;2.72;;;0.50;;
24521;SDS011;12680;57.804;12.190;2023-02-28T12:14:43;0.40;;;0.40;;
24521;SDS011;12680;57.804;12.190;2023-02-28T12:17:26;1.48;;;0.43;;
24521;SDS011;12680;57.804;12.190;2023-02-28T12:28:41;0.40;;;0.40;;
24521;SDS011;12680;57.804;12.190;2023-02-28T12:31:21;0.30;;;0.30;;
24521;SDS011;12680;57.804;12.190;2023-02-28T12:33:52;1.92;;;0.32;;
24521;SDS011;12680;57.804;12.190;2023-02-28T12:36:22;0.40;;;0.40;;
24521;SDS011;12680;57.804;12.190;2023-02-28T12:38:52;0.40;;;0.30;;
24521;SDS011;12680;57.804;12.190;2023-02-28T12:41:54;0.75;;;0.38;;
24521;SDS011;12680;57.804;12.190;2023-02-28T12:44:28;0.73;;;0.30;;
24521;SDS011;12680;57.804;12.190;2023-02-28T12:47:00;3.13;;;0.40;;
24521;SDS011;12680;57.804;12.190;2023-02-28T12:49:33;0.50;;;0.50;;
24521;SDS011;12680;57.804;12.190;2023-02-28T12:52:04;0.45;;;0.40;;
24521;SDS011;12680;57.804;12.190;2023-02-28T12:54:38;0.63;;;0.47;;
24521;SDS011;12680;57.804;12.190;2023-02-28T12:57:36;0.57;;;0.50;;
24521;SDS011;12680;57.804;12.190;2023-02-28T13:00:13;1.13;;;0.75;;
24521;SDS011;12680;57.804;12.190;2023-02-28T13:02:54;0.45;;;0.40;;
24521;SDS011;12680;57.804;12.190;2023-02-28T13:08:37;0.60;;;0.40;;
24521;SDS011;12680;57.804;12.190;2023-02-28T13:11:32;0.35;;;0.35;;
24521;SDS011;12680;57.804;12.190;2023-02-28T13:14:18;0.30;;;0.30;;
24521;SDS011;12680;57.804;12.190;2023-02-28T13:16:58;0.30;;;0.30;;
24521;SDS011;12680;57.804;12.190;2023-02-28T13:22:22;1.50;;;0.60;;
24521;SDS011;12680;57.804;12.190;2023-02-28T13:27:49;0.70;;;0.40;;
24521;SDS011;12680;57.804;12.190;2023-02-28T13:36:38;2.10;;;0.60;;
24521;SDS011;12680;57.804;12.190;2023-02-28T13:38:49;0.60;;;0.50;;
24521;SDS011;12680;57.804;12.190;2023-02-28T13:46:35;0.40;;;0.40;;
24521;SDS011;12680;57.804;12.190;2023-02-28T13:51:50;0.50;;;0.50;;
24521;SDS011;12680;57.804;12.190;2023-02-28T13:57:35;1.38;;;0.60;;
24521;SDS011;12680;57.804;12.190;2023-02-28T14:00:23;1.35;;;0.63;;
24521;SDS011;12680;57.804;12.190;2023-02-28T14:03:25;1.45;;;0.90;;
24521;SDS011;12680;57.804;12.190;2023-02-28T14:08:48;1.88;;;0.80;;
24521;SDS011;12680;57.804;12.190;2023-02-28T14:14:01;1.42;;;0.85;;
24521;SDS011;12680;57.804;12.190;2023-02-28T14:16:44;1.90;;;1.30;;
24521;SDS011;12680;57.804;12.190;2023-02-28T14:19:21;2.30;;;1.17;;
24521;SDS011;12680;57.804;12.190;2023-02-28T14:22:05;5.05;;;1.30;;
24521;SDS011;12680;57.804;12.190;2023-02-28T14:27:13;3.50;;;1.85;;
24521;SDS011;12680;57.804;12.190;2023-02-28T14:35:13;2.53;;;1.60;;
24521;SDS011;12680;57.804;12.190;2023-02-28T14:37:42;8.00;;;1.88;;
24521;SDS011;12680;57.804;12.190;2023-02-28T14:40:17;4.03;;;1.00;;
24521;SDS011;12680;57.804;12.190;2023-02-28T14:42:57;1.70;;;0.88;;
24521;SDS011;12680;57.804;12.190;2023-02-28T14:45:29;1.73;;;0.82;;
24521;SDS011;12680;57.804;12.190;2023-02-28T14:47:58;2.65;;;0.88;;
24521;SDS011;12680;57.804;12.190;2023-02-28T14:50:30;2.15;;;0.57;;
24521;SDS011;12680;57.804;12.190;2023-02-28T14:52:59;0.80;;;0.60;;
24521;SDS011;12680;57.804;12.190;2023-02-28T14:55:31;0.73;;;0.60;;
24521;SDS011;12680;57.804;12.190;2023-02-28T14:58:01;1.00;;;0.50;;
24521;SDS011;12680;57.804;12.190;2023-02-28T15:00:33;0.80;;;0.68;;
24521;SDS011;12680;57.804;12.190;2023-02-28T15:05:56;0.63;;;0.43;;
24521;SDS011;12680;57.804;12.190;2023-02-28T15:08:24;1.92;;;0.43;;
24521;SDS011;12680;57.804;12.190;2023-02-28T15:10:59;4.88;;;0.77;;
24521;SDS011;12680;57.804;12.190;2023-02-28T15:13:34;0.60;;;0.40;;
24521;SDS011;12680;57.804;12.190;2023-02-28T15:16:08;3.00;;;0.77;;
24521;SDS011;12680;57.804;12.190;2023-02-28T15:18:46;1.33;;;0.82;;
24521;SDS011;12680;57.804;12.190;2023-02-28T15:21:39;1.05;;;0.60;;
24521;SDS011;12680;57.804;12.190;2023-02-28T15:26:54;2.38;;;0.52;;
24521;SDS011;12680;57.804;12.190;2023-02-28T15:29:24;1.85;;;1.33;;
24521;SDS011;12680;57.804;12.190;2023-02-28T15:31:57;8.38;;;1.60;;
24521;SDS011;12680;57.804;12.190;2023-02-28T15:34:33;2.78;;;2.00;;
24521;SDS011;12680;57.804;12.190;2023-02-28T15:39:53;1.60;;;0.80;;
24521;SDS011;12680;57.804;12.190;2023-02-28T15:42:22;2.60;;;0.55;;
24521;SDS011;12680;57.804;12.190;2023-02-28T15:44:53;4.60;;;0.90;;
24521;SDS011;12680;57.804;12.190;2023-02-28T15:47:21;1.48;;;0.90;;
24521;SDS011;12680;57.804;12.190;2023-02-28T15:49:51;2.80;;;0.88;;
24521;SDS011;12680;57.804;12.190;2023-02-28T15:52:39;2.83;;;1.05;;
24521;SDS011;12680;57.804;12.190;2023-02-28T15:55:12;2.90;;;1.35;;
24521;SDS011;12680;57.804;12.190;2023-02-28T15:57:50;1.38;;;1.25;;
24521;SDS011;12680;57.804;12.190;2023-02-28T16:00:20;2.72;;;1.38;;
24521;SDS011;12680;57.804;12.190;2023-02-28T16:02:49;1.98;;;1.17;;
24521;SDS011;12680;57.804;12.190;2023-02-28T16:05:18;3.20;;;1.50;;
24521;SDS011;12680;57.804;12.190;2023-02-28T16:07:55;5.93;;;2.97;;
24521;SDS011;12680;57.804;12.190;2023-02-28T16:10:24;3.88;;;2.03;;
24521;SDS011;12680;57.804;12.190;2023-02-28T16:12:53;4.78;;;1.75;;
24521;SDS011;12680;57.804;12.190;2023-02-28T16:15:26;2.00;;;1.77;;
24521;SDS011;12680;57.804;12.190;2023-02-28T16:17:55;2.35;;;1.48;;
24521;SDS011;12680;57.804;12.190;2023-02-28T16:20:29;4.85;;;1.70;;
24521;SDS011;12680;57.804;12.190;2023-02-28T16:22:57;7.72;;;2.75;;
24521;SDS011;12680;57.804;12.190;2023-02-28T16:25:29;4.93;;;2.58;;
24521;SDS011;12680;57.804;12.190;2023-02-28T16:28:05;5.95;;;2.92;;
24521;SDS011;12680;57.804;12.190;2023-02-28T16:30:53;6.18;;;2.88;;
24521;SDS011;12680;57.804;12.190;2023-02-28T16:33:20;4.40;;;2.40;;
24521;SDS011;12680;57.804;12.190;2023-02-28T16:35:47;5.93;;;2.90;;
24521;SDS011;12680;57.804;12.190;2023-02-28T16:38:13;4.18;;;2.05;;
24521;SDS011;12680;57.804;12.190;2023-02-28T16:40:40;4.03;;;1.70;;
24521;SDS011;12680;57.804;12.190;2023-02-28T16:43:07;3.80;;;1.88;;
24521;SDS011;12680;57.804;12.190;2023-02-28T16:45:39;5.22;;;1.83;;
24521;SDS011;12680;57.804;12.190;2023-02-28T16:48:07;3.63;;;1.92;;
24521;SDS011;12680;57.804;12.190;2023-02-28T16:50:39;3.83;;;2.05;;
24521;SDS011;12680;57.804;12.190;2023-02-28T16:53:06;3.53;;;1.40;;
24521;SDS011;12680;57.804;12.190;2023-02-28T16:55:33;2.90;;;1.40;;
24521;SDS011;12680;57.804;12.190;2023-02-28T16:58:01;3.63;;;1.50;;
24521;SDS011;12680;57.804;12.190;2023-02-28T17:00:30;9.00;;;5.30;;
24521;SDS011;12680;57.804;12.190;2023-02-28T17:02:57;3.53;;;1.60;;
24521;SDS011;12680;57.804;12.190;2023-02-28T17:05:33;1.38;;;1.20;;
24521;SDS011;12680;57.804;12.190;2023-02-28T17:08:03;2.38;;;1.48;;
24521;SDS011;12680;57.804;12.190;2023-02-28T17:10:31;1.42;;;1.30;;
24521;SDS011;12680;57.804;12.190;2023-02-28T17:12:58;3.20;;;1.20;;
24521;SDS011;12680;57.804;12.190;2023-02-28T17:15:39;6.00;;;1.65;;
24521;SDS011;12680;57.804;12.190;2023-02-28T17:18:08;5.80;;;1.77;;